Itamarandiba, Brazil
Current Conditions -  °F | °C
As of 12:00 PM on Monday 22 Dec 2014 (Local Time) from SBMK Reporting Station
Few Clouds Few Clouds  
Wind Chill: 82°   Ceiling: Unl
Heat Index: 85°   Visibility: 6mi
Dew Point: 66°   Wind: 0mph
Humidity: 58%   Direction: NA
Pressure: 30.03"   Gusts: NA
Location:  17.85°S, 42.85°W
Report Text: SBMK 221400Z 00000KT 9999 FEW025 28/19 Q1017
Loading
Personal Weather Stations






























Interactive Weather Map New forecast layout! Learn more

10-Day Weather Forecast

Advertisements
Track Severe Weather on mobile